createdAt,value
2022-07-29T00:02:16.802Z,17.67
2022-07-29T00:04:43.613Z,17.63
2022-07-29T00:07:10.485Z,17.65
2022-07-29T00:09:41.944Z,17.63
2022-07-29T00:12:25.612Z,17.65
2022-07-29T00:14:55.489Z,17.65
2022-07-29T00:17:22.603Z,17.61
2022-07-29T00:19:49.308Z,17.66
2022-07-29T00:22:16.504Z,17.60
2022-07-29T00:24:43.187Z,17.60
2022-07-29T00:27:09.936Z,17.59
2022-07-29T00:29:36.967Z,17.58
2022-07-29T00:32:04.335Z,17.57
2022-07-29T00:34:50.869Z,17.54
2022-07-29T00:37:17.781Z,17.49
2022-07-29T00:39:44.519Z,17.44
2022-07-29T00:42:11.819Z,17.41
2022-07-29T00:44:42.684Z,17.39
2022-07-29T00:47:11.861Z,17.35
2022-07-29T00:49:40.306Z,17.29
2022-07-29T00:52:07.515Z,17.17
2022-07-29T00:54:35.166Z,17.21
2022-07-29T00:57:04.394Z,17.21
2022-07-29T00:59:34.779Z,17.22
2022-07-29T01:02:04.137Z,17.23
2022-07-29T01:04:32.280Z,17.21
2022-07-29T01:07:00.383Z,17.23
2022-07-29T01:09:42.086Z,17.22
2022-07-29T01:12:20.274Z,17.23
2022-07-29T01:14:48.867Z,17.25
2022-07-29T01:17:27.241Z,17.27
2022-07-29T01:20:07.345Z,17.28
2022-07-29T01:23:01.225Z,17.26
2022-07-29T01:25:35.607Z,17.29
2022-07-29T01:28:24.098Z,17.28
2022-07-29T01:30:54.984Z,17.24
2022-07-29T01:33:46.730Z,17.17
2022-07-29T01:36:19.315Z,17.10
2022-07-29T01:38:58.090Z,17.05
2022-07-29T01:41:28.030Z,17.04
2022-07-29T01:44:04.049Z,16.99
2022-07-29T01:46:37.185Z,16.99
2022-07-29T01:49:12.813Z,16.97
2022-07-29T01:51:47.400Z,16.97
2022-07-29T01:54:40.030Z,16.94
2022-07-29T01:57:09.372Z,16.96
2022-07-29T01:59:38.321Z,17.00
2022-07-29T02:02:09.485Z,17.01
2022-07-29T02:04:37.859Z,17.03
2022-07-29T02:07:08.156Z,16.97
2022-07-29T02:09:37.476Z,17.03
2022-07-29T02:12:05.679Z,17.08
2022-07-29T02:14:37.198Z,17.06
2022-07-29T02:17:04.371Z,17.08
2022-07-29T02:19:34.158Z,17.07
2022-07-29T02:22:02.292Z,17.05
2022-07-29T02:24:30.929Z,17.01
2022-07-29T02:27:00.219Z,16.98
2022-07-29T02:29:29.583Z,16.97
2022-07-29T02:31:59.339Z,16.91
2022-07-29T02:34:26.801Z,16.89
2022-07-29T02:36:55.319Z,16.83
2022-07-29T02:39:23.759Z,16.79
2022-07-29T02:41:58.755Z,16.76
2022-07-29T02:44:31.273Z,16.73
2022-07-29T02:47:22.128Z,16.72
2022-07-29T02:49:56.865Z,16.69
2022-07-29T02:52:44.735Z,16.62
2022-07-29T02:55:23.992Z,16.66
2022-07-29T02:58:14.616Z,16.64
2022-07-29T03:00:42.265Z,16.65
2022-07-29T03:03:13.416Z,16.65
2022-07-29T03:05:41.490Z,16.71
2022-07-29T03:08:11.538Z,16.70
2022-07-29T03:10:46.545Z,16.72
2022-07-29T03:13:14.655Z,16.77
2022-07-29T03:15:45.234Z,16.78
2022-07-29T03:18:12.218Z,16.78
2022-07-29T03:20:40.062Z,16.79
2022-07-29T03:23:06.739Z,16.77
2022-07-29T03:25:33.474Z,16.76
2022-07-29T03:28:00.468Z,16.77
2022-07-29T03:30:27.140Z,16.79
2022-07-29T03:32:54.572Z,16.79
2022-07-29T03:35:25.853Z,16.78
2022-07-29T03:37:52.698Z,16.77
2022-07-29T03:40:27.160Z,16.74
2022-07-29T03:42:55.165Z,16.73
2022-07-29T03:45:24.131Z,16.69
2022-07-29T03:48:00.317Z,16.66
2022-07-29T03:50:29.824Z,16.63
2022-07-29T03:52:56.819Z,16.59
2022-07-29T03:55:24.644Z,16.53
2022-07-29T03:57:52.084Z,16.51
2022-07-29T04:00:19.617Z,16.46
2022-07-29T04:02:49.464Z,16.44
2022-07-29T04:05:17.003Z,16.43
2022-07-29T04:07:50.073Z,16.43
2022-07-29T04:10:30.679Z,16.40
2022-07-29T04:13:00.548Z,16.35
2022-07-29T04:15:31.571Z,16.33
2022-07-29T04:17:59.545Z,16.29
2022-07-29T04:20:26.905Z,16.22
2022-07-29T04:22:53.580Z,16.22
2022-07-29T04:25:20.375Z,16.23
2022-07-29T04:28:02.010Z,16.21
2022-07-29T04:30:28.986Z,16.23
2022-07-29T04:32:55.586Z,16.27
2022-07-29T04:35:22.464Z,16.28
2022-07-29T04:37:49.150Z,16.30
2022-07-29T04:40:16.499Z,16.30
2022-07-29T04:42:47.227Z,16.30
2022-07-29T04:45:15.249Z,16.36
2022-07-29T04:47:43.211Z,16.40
2022-07-29T04:50:10.887Z,16.43
2022-07-29T04:52:37.731Z,16.44
2022-07-29T04:55:06.592Z,16.43
2022-07-29T04:57:33.558Z,16.48
2022-07-29T05:00:00.310Z,16.48
2022-07-29T05:02:27.168Z,16.49
2022-07-29T05:04:53.983Z,16.48
2022-07-29T05:07:20.867Z,16.48
2022-07-29T05:09:48.237Z,16.42
2022-07-29T05:12:14.998Z,16.44
2022-07-29T05:14:41.738Z,16.43
2022-07-29T05:17:08.486Z,16.42
2022-07-29T05:19:39.862Z,16.37
2022-07-29T05:22:07.098Z,16.33
2022-07-29T05:24:33.787Z,16.28
2022-07-29T05:27:00.639Z,16.21
2022-07-29T05:29:42.726Z,16.15
2022-07-29T05:32:11.915Z,16.12
2022-07-29T05:34:38.622Z,16.09
2022-07-29T05:37:18.874Z,16.06
2022-07-29T05:39:48.672Z,16.07
2022-07-29T05:42:17.477Z,16.09
2022-07-29T05:44:44.348Z,16.08
2022-07-29T05:47:10.982Z,16.06
2022-07-29T05:49:37.683Z,16.11
2022-07-29T05:52:04.731Z,16.13
2022-07-29T05:54:31.707Z,16.15
2022-07-29T05:56:58.315Z,16.18
2022-07-29T05:59:30.090Z,16.21
2022-07-29T06:01:58.324Z,16.27
2022-07-29T06:04:25.451Z,16.30
2022-07-29T06:06:52.196Z,16.35
2022-07-29T06:09:19.347Z,16.40
2022-07-29T06:11:46.127Z,16.49
2022-07-29T06:14:12.915Z,16.55
2022-07-29T06:16:39.906Z,16.63
2022-07-29T06:19:06.711Z,16.68
2022-07-29T06:21:33.486Z,16.71
2022-07-29T06:24:00.538Z,16.73
2022-07-29T06:26:30.961Z,16.80
2022-07-29T06:28:58.177Z,16.86
2022-07-29T06:31:25.196Z,16.90
2022-07-29T06:33:52.011Z,16.97
2022-07-29T06:36:21.409Z,17.03
2022-07-29T06:38:50.466Z,17.06
2022-07-29T06:41:19.163Z,17.09
2022-07-29T06:43:51.891Z,17.15
2022-07-29T06:46:22.452Z,17.20
2022-07-29T06:48:49.851Z,17.23
2022-07-29T06:51:22.205Z,17.32
2022-07-29T06:54:01.563Z,17.37
2022-07-29T06:56:40.310Z,17.42
2022-07-29T06:59:11.810Z,17.48
2022-07-29T07:01:40.693Z,17.51
2022-07-29T07:04:09.568Z,17.55
2022-07-29T07:06:36.667Z,17.53
2022-07-29T07:09:03.621Z,17.51
2022-07-29T07:11:30.393Z,17.52
2022-07-29T07:14:02.586Z,17.55
2022-07-29T07:16:30.169Z,17.59
2022-07-29T07:18:56.913Z,17.65
2022-07-29T07:21:23.870Z,17.69
2022-07-29T07:23:50.579Z,17.71
2022-07-29T07:26:17.246Z,17.75
2022-07-29T07:28:44.229Z,17.80
2022-07-29T07:31:11.538Z,17.85
2022-07-29T07:33:38.384Z,17.87
2022-07-29T07:36:05.521Z,17.94
2022-07-29T07:38:32.100Z,17.96
2022-07-29T07:40:59.778Z,17.99
2022-07-29T07:43:26.648Z,18.03
2022-07-29T07:45:53.861Z,18.05
2022-07-29T07:48:20.609Z,18.12
2022-07-29T07:50:47.743Z,18.13
2022-07-29T07:53:14.593Z,18.17
2022-07-29T07:58:30.402Z,18.22
2022-07-29T08:00:57.071Z,18.24
2022-07-29T08:03:23.808Z,18.28
2022-07-29T08:05:52.842Z,18.32
2022-07-29T08:08:19.694Z,18.34
2022-07-29T08:10:57.155Z,18.35
2022-07-29T08:13:29.183Z,18.38
2022-07-29T08:16:00.773Z,18.43
2022-07-29T08:18:31.873Z,18.45
2022-07-29T08:20:59.636Z,18.49
2022-07-29T08:23:31.576Z,18.49
2022-07-29T08:26:01.460Z,18.55
2022-07-29T08:28:28.022Z,18.56
2022-07-29T08:30:54.745Z,18.60
2022-07-29T08:33:21.687Z,18.64
2022-07-29T08:35:48.379Z,18.67
2022-07-29T08:38:15.135Z,18.71
2022-07-29T08:40:41.915Z,18.71
2022-07-29T08:43:10.054Z,18.73
2022-07-29T08:45:48.554Z,18.74
2022-07-29T08:48:18.220Z,18.78
2022-07-29T08:50:46.090Z,18.81
2022-07-29T08:53:15.078Z,18.80
2022-07-29T08:55:44.434Z,18.88
2022-07-29T08:58:12.071Z,18.97
2022-07-29T09:00:57.866Z,19.01
2022-07-29T09:03:28.417Z,19.08
2022-07-29T09:05:55.418Z,19.14
2022-07-29T09:08:22.973Z,19.14
2022-07-29T09:10:50.248Z,19.17
2022-07-29T09:13:16.867Z,19.18
2022-07-29T09:15:43.742Z,19.23
2022-07-29T09:18:28.930Z,19.26
2022-07-29T09:21:16.213Z,19.34
2022-07-29T09:24:01.075Z,19.41
2022-07-29T09:26:32.154Z,19.49
2022-07-29T09:29:00.139Z,19.57
2022-07-29T09:31:51.157Z,19.60
2022-07-29T09:34:29.429Z,19.65
2022-07-29T09:36:57.442Z,19.66
2022-07-29T09:39:32.852Z,19.74
2022-07-29T09:42:02.101Z,19.80
2022-07-29T09:44:42.339Z,19.86
2022-07-29T09:47:09.564Z,19.90
2022-07-29T09:49:50.836Z,19.95
2022-07-29T09:52:17.787Z,19.97
2022-07-29T09:54:45.010Z,20.00
2022-07-29T09:57:30.533Z,19.94
2022-07-29T10:00:01.025Z,19.97
2022-07-29T10:02:32.462Z,19.99
2022-07-29T10:05:00.522Z,19.98
2022-07-29T10:07:27.674Z,20.01
2022-07-29T10:09:56.754Z,20.04
2022-07-29T10:12:25.020Z,20.09
2022-07-29T10:14:52.066Z,20.10
2022-07-29T10:17:20.367Z,20.18
2022-07-29T10:19:47.165Z,20.14
2022-07-29T10:22:15.057Z,20.19
2022-07-29T10:24:42.349Z,20.19
2022-07-29T10:27:10.323Z,20.24
2022-07-29T10:29:37.318Z,20.26
2022-07-29T10:32:31.768Z,20.30
2022-07-29T10:35:08.351Z,20.35
2022-07-29T10:38:03.654Z,20.40
2022-07-29T10:41:09.994Z,20.42
2022-07-29T10:43:45.149Z,20.44
2022-07-29T10:46:15.539Z,20.47
2022-07-29T10:49:10.466Z,20.48
2022-07-29T10:52:02.250Z,20.52
2022-07-29T10:54:52.200Z,20.56
2022-07-29T10:57:25.626Z,20.64
2022-07-29T11:00:16.721Z,20.68
2022-07-29T11:02:45.926Z,20.74
2022-07-29T11:05:20.680Z,20.75
2022-07-29T11:08:27.893Z,20.80
2022-07-29T11:11:22.231Z,20.87
2022-07-29T11:13:52.369Z,20.90
2022-07-29T11:16:24.922Z,20.96
2022-07-29T11:19:26.308Z,21.00
2022-07-29T11:21:58.257Z,21.08
2022-07-29T11:24:30.270Z,21.12
2022-07-29T11:27:20.095Z,21.17
2022-07-29T11:29:56.354Z,21.17
2022-07-29T11:32:25.762Z,21.27
2022-07-29T11:35:36.920Z,21.34
2022-07-29T11:38:23.898Z,21.42
2022-07-29T11:41:26.054Z,21.47
2022-07-29T11:43:57.144Z,21.53
2022-07-29T11:46:50.186Z,21.60
2022-07-29T11:49:31.507Z,21.68
2022-07-29T11:52:02.365Z,21.75
2022-07-29T11:54:50.882Z,21.82
2022-07-29T11:57:22.780Z,21.89
2022-07-29T12:00:09.695Z,21.99
2022-07-29T12:02:40.779Z,22.07
2022-07-29T12:05:10.750Z,22.13
2022-07-29T12:07:39.299Z,22.11
2022-07-29T12:10:11.617Z,22.08
2022-07-29T12:12:53.736Z,22.01
2022-07-29T12:15:46.310Z,21.99
2022-07-29T12:18:18.600Z,21.99
2022-07-29T12:20:45.959Z,22.05
2022-07-29T12:23:13.340Z,22.09
2022-07-29T12:25:44.387Z,22.13
2022-07-29T12:28:26.879Z,22.26
2022-07-29T12:30:54.486Z,22.32
2022-07-29T12:33:21.196Z,22.42
2022-07-29T12:36:06.073Z,22.46
2022-07-29T12:38:37.610Z,22.52
2022-07-29T12:41:05.019Z,22.52
2022-07-29T12:43:32.304Z,22.46
2022-07-29T12:46:12.433Z,22.46
2022-07-29T12:48:41.192Z,22.51
2022-07-29T12:51:09.814Z,22.59
2022-07-29T12:53:37.975Z,22.68
2022-07-29T12:56:20.786Z,22.72
2022-07-29T12:58:52.829Z,22.82
2022-07-29T13:01:21.042Z,22.90
2022-07-29T13:03:57.318Z,23.05
2022-07-29T13:06:41.345Z,23.22
2022-07-29T13:09:20.113Z,23.33
2022-07-29T13:11:49.350Z,23.38
2022-07-29T13:14:40.145Z,23.43
2022-07-29T13:17:09.819Z,23.48
2022-07-29T13:20:13.439Z,23.51
2022-07-29T13:22:42.229Z,23.61
2022-07-29T13:25:10.664Z,23.65
2022-07-29T13:27:39.413Z,23.65
2022-07-29T13:30:09.410Z,23.62
2022-07-29T13:32:37.313Z,23.66
2022-07-29T13:35:07.287Z,23.74
2022-07-29T13:37:36.067Z,23.82
2022-07-29T13:40:04.403Z,23.92
2022-07-29T13:42:32.646Z,24.02
2022-07-29T13:44:59.862Z,24.08
2022-07-29T13:47:32.541Z,24.20
2022-07-29T13:50:03.124Z,24.24
2022-07-29T13:52:29.983Z,24.25
2022-07-29T13:54:57.338Z,24.33
2022-07-29T13:57:24.291Z,24.41
2022-07-29T13:59:54.451Z,24.43
2022-07-29T14:02:21.581Z,24.39
2022-07-29T14:04:53.451Z,24.42
2022-07-29T14:07:20.078Z,24.52
2022-07-29T14:09:46.822Z,24.55
2022-07-29T14:12:13.915Z,24.67
2022-07-29T14:14:40.746Z,24.81
2022-07-29T14:17:07.825Z,24.93
2022-07-29T14:19:36.843Z,24.91
2022-07-29T14:22:05.302Z,24.87
2022-07-29T14:24:32.328Z,24.81
2022-07-29T14:26:59.418Z,24.67
2022-07-29T14:29:35.281Z,24.59
2022-07-29T14:32:08.918Z,24.48
2022-07-29T14:34:39.310Z,24.38
2022-07-29T14:37:07.071Z,24.33
2022-07-29T14:39:38.126Z,24.29
2022-07-29T14:42:09.808Z,24.25
2022-07-29T14:44:39.209Z,24.28
2022-07-29T14:47:08.065Z,24.33
2022-07-29T14:49:35.822Z,24.49
2022-07-29T14:52:03.075Z,24.57
2022-07-29T14:54:29.922Z,24.66
2022-07-29T14:56:58.427Z,24.83
2022-07-29T14:59:26.263Z,24.94
2022-07-29T15:01:53.237Z,24.95
2022-07-29T15:04:20.138Z,25.00
2022-07-29T15:06:46.987Z,25.03
2022-07-29T15:09:13.757Z,24.97
2022-07-29T15:11:40.386Z,24.95
2022-07-29T15:14:07.635Z,24.89
2022-07-29T15:16:37.132Z,24.86
2022-07-29T15:19:04.713Z,24.85
2022-07-29T15:21:31.472Z,24.86
2022-07-29T15:23:58.209Z,24.85
2022-07-29T15:26:25.081Z,24.83
2022-07-29T15:28:52.146Z,24.78
2022-07-29T15:31:19.907Z,24.77
2022-07-29T15:33:46.800Z,24.72
2022-07-29T15:36:35.688Z,24.69
2022-07-29T15:39:00.783Z,24.58
2022-07-29T15:41:27.687Z,24.51
2022-07-29T15:43:54.379Z,24.50
2022-07-29T15:46:40.536Z,24.48
2022-07-29T15:49:08.495Z,24.43
2022-07-29T15:51:35.709Z,24.42
2022-07-29T15:54:04.305Z,24.39
2022-07-29T15:56:31.761Z,24.36
2022-07-29T15:58:58.688Z,24.32
2022-07-29T16:01:25.692Z,24.30
2022-07-29T16:03:52.972Z,24.28
2022-07-29T16:06:20.025Z,24.25
2022-07-29T16:08:46.976Z,24.24
2022-07-29T16:11:13.650Z,24.20
2022-07-29T16:13:40.524Z,24.19
2022-07-29T16:16:07.531Z,24.18
2022-07-29T16:18:34.769Z,24.15
2022-07-29T16:21:01.576Z,24.13
2022-07-29T16:23:28.493Z,24.14
2022-07-29T16:26:00.531Z,24.11
2022-07-29T16:28:28.883Z,24.12
2022-07-29T16:30:55.730Z,24.10
2022-07-29T16:33:22.360Z,24.07
2022-07-29T16:35:49.595Z,24.06
2022-07-29T16:38:16.538Z,24.05
2022-07-29T16:40:43.382Z,24.08
2022-07-29T16:43:10.054Z,24.11
2022-07-29T16:45:45.562Z,24.11
2022-07-29T16:48:14.012Z,24.12
2022-07-29T16:50:43.395Z,24.13
2022-07-29T16:53:10.886Z,24.13
2022-07-29T16:55:38.209Z,24.17
2022-07-29T16:58:05.510Z,24.19
2022-07-29T17:00:32.270Z,24.23
2022-07-29T17:03:00.067Z,24.28
2022-07-29T17:05:29.899Z,24.31
2022-07-29T17:08:16.772Z,24.33
2022-07-29T17:10:43.691Z,24.31
2022-07-29T17:13:10.448Z,24.23
2022-07-29T17:15:37.239Z,24.18
2022-07-29T17:18:12.502Z,24.13
2022-07-29T17:20:41.487Z,24.08
2022-07-29T17:23:08.377Z,24.07
2022-07-29T17:25:35.211Z,24.05
2022-07-29T17:28:02.004Z,24.04
2022-07-29T17:30:29.989Z,24.05
2022-07-29T17:32:56.946Z,24.05
2022-07-29T17:35:42.896Z,24.03
2022-07-29T17:38:09.881Z,24.01
2022-07-29T17:40:37.242Z,24.01
2022-07-29T17:43:04.884Z,23.99
2022-07-29T17:45:49.914Z,23.98
2022-07-29T17:48:18.240Z,23.98
2022-07-29T17:50:45.614Z,23.99
2022-07-29T17:53:15.838Z,23.99
2022-07-29T17:55:45.848Z,24.01
2022-07-29T17:58:12.561Z,23.98
2022-07-29T18:00:39.470Z,23.99
2022-07-29T18:03:07.724Z,23.98
2022-07-29T18:05:35.118Z,23.94
2022-07-29T18:08:02.019Z,23.90
2022-07-29T18:10:29.168Z,23.92
2022-07-29T18:12:55.737Z,23.88
2022-07-29T18:15:22.949Z,23.89
2022-07-29T18:17:57.519Z,23.91
2022-07-29T18:20:26.164Z,23.95
2022-07-29T18:22:53.144Z,24.01
2022-07-29T18:25:19.890Z,24.16
2022-07-29T18:27:46.483Z,24.17
2022-07-29T18:30:15.321Z,24.16
2022-07-29T18:32:50.548Z,24.14
2022-07-29T18:35:26.488Z,24.08
2022-07-29T18:38:01.842Z,24.05
2022-07-29T18:40:29.733Z,24.01
2022-07-29T18:42:56.645Z,23.95
2022-07-29T18:45:23.318Z,23.93
2022-07-29T18:47:56.090Z,23.88
2022-07-29T18:50:28.815Z,23.84
2022-07-29T18:52:58.785Z,23.79
2022-07-29T18:55:26.526Z,23.77
2022-07-29T18:57:56.417Z,23.71
2022-07-29T19:00:24.616Z,23.69
2022-07-29T19:02:52.582Z,23.67
2022-07-29T19:05:19.442Z,23.56
2022-07-29T19:07:46.190Z,23.57
2022-07-29T19:10:13.595Z,23.55
2022-07-29T19:15:08.284Z,23.43
2022-07-29T19:17:35.148Z,23.35
2022-07-29T19:20:02.563Z,23.31
2022-07-29T19:22:29.317Z,23.26
2022-07-29T19:24:56.012Z,23.24
2022-07-29T19:27:22.753Z,23.18
2022-07-29T19:29:49.588Z,23.16
2022-07-29T19:32:24.960Z,23.11
2022-07-29T19:35:11.570Z,23.06
2022-07-29T19:37:38.278Z,23.01
2022-07-29T19:40:06.480Z,22.97
2022-07-29T19:42:33.162Z,22.79
2022-07-29T19:45:00.019Z,22.77
2022-07-29T19:47:26.808Z,22.76
2022-07-29T19:49:53.751Z,22.70
2022-07-29T19:52:20.497Z,22.61
2022-07-29T19:54:47.230Z,22.56
2022-07-29T19:57:14.076Z,22.48
2022-07-29T19:59:40.950Z,22.43
2022-07-29T20:02:10.865Z,22.41
2022-07-29T20:04:38.726Z,22.37
2022-07-29T20:07:06.656Z,22.36
2022-07-29T20:09:33.475Z,22.28
2022-07-29T20:12:00.154Z,22.22
2022-07-29T20:14:27.008Z,22.18
2022-07-29T20:16:54.540Z,22.10
2022-07-29T20:19:21.595Z,22.05
2022-07-29T20:21:48.436Z,22.03
2022-07-29T20:24:15.273Z,21.96
2022-07-29T20:26:42.165Z,21.88
2022-07-29T20:29:09.198Z,21.84
2022-07-29T20:31:36.250Z,21.81
2022-07-29T20:34:03.527Z,21.77
2022-07-29T20:36:30.517Z,21.75
2022-07-29T20:38:59.932Z,21.68
2022-07-29T20:41:27.159Z,21.60
2022-07-29T20:43:53.865Z,21.53
2022-07-29T20:46:21.302Z,21.45
2022-07-29T20:48:48.236Z,21.39
2022-07-29T20:51:14.998Z,21.34
2022-07-29T20:53:42.014Z,21.25
2022-07-29T20:56:08.842Z,21.20
2022-07-29T20:58:36.508Z,21.18
2022-07-29T21:01:04.173Z,21.12
2022-07-29T21:03:31.359Z,21.10
2022-07-29T21:05:58.956Z,21.07
2022-07-29T21:08:26.280Z,21.03
2022-07-29T21:10:53.790Z,20.98
2022-07-29T21:13:22.423Z,20.94
2022-07-29T21:15:50.690Z,20.90
2022-07-29T21:18:37.031Z,20.72
2022-07-29T21:21:04.999Z,20.75
2022-07-29T21:23:31.764Z,20.70
2022-07-29T21:25:59.002Z,20.64
2022-07-29T21:28:41.270Z,20.60
2022-07-29T21:31:11.245Z,20.56
2022-07-29T21:33:39.937Z,20.50
2022-07-29T21:36:35.528Z,20.49
2022-07-29T21:38:54.190Z,20.44
2022-07-29T21:41:21.904Z,20.44
2022-07-29T21:43:48.591Z,20.40
2022-07-29T21:46:17.086Z,20.35
2022-07-29T21:48:44.634Z,20.28
2022-07-29T21:51:11.595Z,20.21
2022-07-29T21:53:38.470Z,20.17
2022-07-29T21:56:09.431Z,20.14
2022-07-29T21:58:41.788Z,20.09
2022-07-29T22:01:08.533Z,20.04
2022-07-29T22:03:35.170Z,19.98
2022-07-29T22:06:02.031Z,19.95
2022-07-29T22:08:28.707Z,19.91
2022-07-29T22:10:55.478Z,19.90
2022-07-29T22:13:22.240Z,19.86
2022-07-29T22:15:48.951Z,19.82
2022-07-29T22:18:21.137Z,19.78
2022-07-29T22:20:49.754Z,19.76
2022-07-29T22:23:16.582Z,19.69
2022-07-29T22:25:43.279Z,19.68
2022-07-29T22:28:10.163Z,19.69
2022-07-29T22:30:36.916Z,19.65
2022-07-29T22:33:03.720Z,19.63
2022-07-29T22:35:30.577Z,19.62
2022-07-29T22:37:57.229Z,19.60
2022-07-29T22:40:23.981Z,19.55
2022-07-29T22:42:57.633Z,19.56
2022-07-29T22:45:24.549Z,19.55
2022-07-29T22:47:55.934Z,19.54
2022-07-29T22:50:25.018Z,19.51
2022-07-29T22:52:51.983Z,19.49
2022-07-29T22:55:18.708Z,19.46
2022-07-29T22:57:45.586Z,19.43
2022-07-29T23:00:13.564Z,19.38
2022-07-29T23:02:41.437Z,19.33
2022-07-29T23:05:09.154Z,19.34
2022-07-29T23:07:36.183Z,19.34
2022-07-29T23:10:04.156Z,19.34
2022-07-29T23:12:30.888Z,19.31
2022-07-29T23:14:57.625Z,19.31
2022-07-29T23:17:24.368Z,19.27
2022-07-29T23:19:51.422Z,19.26
2022-07-29T23:22:18.521Z,19.26
2022-07-29T23:24:45.408Z,19.22
2022-07-29T23:27:12.295Z,19.25
2022-07-29T23:29:38.985Z,19.20
2022-07-29T23:32:05.964Z,19.22
2022-07-29T23:34:32.670Z,19.17
2022-07-29T23:36:59.627Z,19.15
2022-07-29T23:39:26.460Z,19.09
2022-07-29T23:41:53.390Z,19.06
2022-07-29T23:44:20.240Z,19.03
2022-07-29T23:46:46.970Z,19.03
2022-07-29T23:49:14.703Z,18.99
2022-07-29T23:51:41.388Z,19.03
2022-07-29T23:54:08.053Z,19.04
2022-07-29T23:56:34.898Z,19.07
2022-07-29T23:59:01.732Z,19.08
